Time;durP1;ratioP1;P1;durP2;ratioP2;P2;SDS_P1;SDS_P2;PMS_P1;PMS_P2;Temp;Humidity;BMP_temperature;BMP_pressure;BME280_temperature;BME280_humidity;BME280_pressure;Samples;Min_cycle;Max_cycle;Signal;HPM_P1;HPM_P2
2022/07/20 00:02:21;;;;;;;4.35;1.73;;;;;;;20.40;38.93;94454.66;4988616;28;20038;-77
2022/07/20 00:04:48;;;;;;;4.38;3.08;;;;;;;20.41;39.08;94456.25;4988488;28;20026;-77
2022/07/20 00:07:13;;;;;;;2.80;1.90;;;;;;;20.41;38.88;94450.84;4990093;28;20071;-77
2022/07/20 00:12:23;;;;;;;4.22;2.25;;;;;;;20.28;38.65;94435.94;4990381;28;20597;-76
2022/07/20 00:14:48;;;;;;;3.72;2.67;;;;;;;20.31;38.81;94440.63;4989368;28;20034;-77
2022/07/20 00:17:14;;;;;;;4.47;2.05;;;;;;;20.32;39.11;94446.81;4990133;28;20026;-76
2022/07/20 00:19:39;;;;;;;2.95;1.90;;;;;;;20.32;38.94;94453.00;4987042;28;20141;-78
2022/07/20 00:22:05;;;;;;;2.40;1.90;;;;;;;20.22;39.01;94431.19;4989707;28;20092;-79
2022/07/20 00:24:30;;;;;;;2.33;1.98;;;;;;;20.20;38.90;94433.47;4988196;28;20091;-78
2022/07/20 00:26:55;;;;;;;3.13;1.90;;;;;;;20.16;39.33;94436.06;4990020;28;20030;-75
2022/07/20 00:29:21;;;;;;;3.15;1.98;;;;;;;20.24;39.24;94442.44;4990175;28;20117;-76
2022/07/20 00:31:46;;;;;;;4.55;2.20;;;;;;;20.25;39.52;94446.66;4990315;28;20030;-76
2022/07/20 00:34:11;;;;;;;3.47;2.08;;;;;;;20.07;39.70;94432.81;5002978;28;20135;-78
2022/07/20 00:36:37;;;;;;;4.78;2.25;;;;;;;20.14;39.25;94441.06;5003328;28;20030;-76
2022/07/20 00:39:02;;;;;;;2.88;2.28;;;;;;;20.13;39.63;94445.69;4990445;28;20297;-77
2022/07/20 00:41:28;;;;;;;2.85;2.17;;;;;;;20.01;39.60;94426.94;4987797;28;20029;-76
2022/07/20 00:43:58;;;;;;;3.83;2.03;;;;;;;20.02;39.88;94449.31;4990278;28;20026;-78
2022/07/20 00:46:24;;;;;;;2.58;2.03;;;;;;;19.94;40.11;94447.63;4987099;28;20033;-78
2022/07/20 00:48:50;;;;;;;2.35;2.05;;;;;;;19.95;40.39;94449.94;4988527;28;20167;-77
2022/07/20 00:51:16;;;;;;;2.30;1.63;;;;;;;20.03;40.21;94456.28;4987466;28;20026;-76
2022/07/20 00:53:42;;;;;;;2.50;2.20;;;;;;;19.92;40.08;94453.38;4989534;28;20088;-76
2022/07/20 00:56:08;;;;;;;2.15;1.63;;;;;;;19.81;40.54;94454.28;4988820;28;20117;-76
2022/07/20 00:58:34;;;;;;;2.60;1.92;;;;;;;19.62;40.64;94446.97;4988143;28;20433;-79
2022/07/20 01:00:59;;;;;;;5.95;1.95;;;;;;;19.57;40.88;94455.34;4989656;28;20019;-79
2022/07/20 01:03:25;;;;;;;1.70;1.58;;;;;;;19.40;41.00;94444.97;4995035;28;20080;-78
2022/07/20 01:05:51;;;;;;;2.03;1.77;;;;;;;19.37;41.16;94441.03;4986116;28;20450;-78
2022/07/20 01:08:16;;;;;;;2.70;1.70;;;;;;;19.35;40.95;94442.53;4993971;28;20487;-76
2022/07/20 01:10:43;;;;;;;2.28;1.92;;;;;;;19.43;40.68;94439.63;4988585;28;20210;-78
2022/07/20 01:13:08;;;;;;;3.00;1.77;;;;;;;19.34;41.04;94447.16;4990070;28;20710;-78
2022/07/20 01:15:34;;;;;;;5.05;2.78;;;;;;;19.39;40.65;94444.19;4988349;28;20029;-77
2022/07/20 01:17:59;;;;;;;2.13;1.80;;;;;;;19.37;41.04;94446.44;4990289;28;20022;-78
2022/07/20 01:20:25;;;;;;;3.47;2.15;;;;;;;19.26;41.34;94423.88;4988144;28;20036;-78
2022/07/20 01:22:51;;;;;;;3.60;2.25;;;;;;;19.14;41.64;94416.69;4989426;28;20616;-78
2022/07/20 01:25:16;;;;;;;3.15;2.38;;;;;;;19.28;41.38;94441.25;4990309;28;20030;-76
2022/07/20 01:27:42;;;;;;;7.47;1.88;;;;;;;19.23;41.37;94441.53;4985888;28;20030;-78
2022/07/20 01:30:08;;;;;;;2.65;2.13;;;;;;;19.23;41.49;94441.53;4989989;28;20025;-78
2022/07/20 01:32:34;;;;;;;2.67;1.90;;;;;;;19.19;41.35;94429.88;5004850;28;20021;-79
2022/07/20 01:34:59;;;;;;;2.78;2.20;;;;;;;19.24;41.38;94443.09;4995615;28;20671;-76
2022/07/20 01:37:26;;;;;;;2.58;2.03;;;;;;;19.12;41.71;94437.81;4991443;28;20113;-78
2022/07/20 01:39:51;;;;;;;4.63;1.60;;;;;;;19.02;41.97;94424.09;4991403;28;20192;-76
2022/07/20 01:42:17;;;;;;;2.72;2.28;;;;;;;19.01;41.97;94433.31;4992824;28;20643;-78
2022/07/20 01:44:42;;;;;;;3.78;2.00;;;;;;;18.81;41.85;94398.25;4992733;28;20736;-78
2022/07/20 01:47:07;;;;;;;3.95;2.05;;;;;;;19.05;41.99;94439.56;5005116;28;20143;-78
2022/07/20 01:49:33;;;;;;;3.30;2.08;;;;;;;19.09;41.61;94445.81;4992858;28;20033;-78
2022/07/20 01:52:00;;;;;;;3.63;1.95;;;;;;;19.00;41.93;94445.22;4991221;28;20199;-78
2022/07/20 01:54:26;;;;;;;3.22;2.20;;;;;;;18.89;41.99;94415.34;4992411;28;20031;-76
2022/07/20 01:56:51;;;;;;;6.35;2.33;;;;;;;18.96;41.92;94431.69;4992980;28;20305;-76
2022/07/20 01:59:17;;;;;;;3.45;2.50;;;;;;;18.68;42.04;94399.44;4992418;28;20049;-78
2022/07/20 02:01:42;;;;;;;3.50;2.03;;;;;;;18.36;42.43;94377.13;4992154;28;20375;-77
2022/07/20 02:04:08;;;;;;;3.92;1.70;;;;;;;18.67;42.44;94434.81;4993580;28;20080;-76
2022/07/20 02:06:33;;;;;;;2.95;1.92;;;;;;;18.63;42.78;94437.41;5006463;28;20076;-78
2022/07/20 02:08:58;;;;;;;1.95;1.75;;;;;;;18.51;42.67;94442.13;4990875;28;20153;-78
2022/07/20 02:11:24;;;;;;;3.17;2.25;;;;;;;18.46;42.69;94448.53;4991439;28;20057;-78
2022/07/20 02:13:49;;;;;;;2.42;1.90;;;;;;;18.54;42.38;94457.56;4991233;28;20026;-78
2022/07/20 02:16:15;;;;;;;3.95;2.67;;;;;;;18.42;42.51;94455.75;4990679;28;20030;-77
2022/07/20 02:18:48;;;;;;;4.63;2.50;;;;;;;18.48;42.15;94447.06;4991548;28;20208;-78
2022/07/20 02:21:16;;;;;;;2.35;1.98;;;;;;;18.55;42.40;94459.94;4991882;28;20043;-78
2022/07/20 02:23:42;;;;;;;6.22;2.08;;;;;;;18.28;42.30;94418.50;4992106;28;20025;-78
2022/07/20 02:26:08;;;;;;;3.53;2.50;;;;;;;18.31;42.47;94444.72;4992776;28;20453;-78
2022/07/20 02:28:33;;;;;;;3.00;2.10;;;;;;;18.51;42.18;94458.28;4992960;28;20026;-78
2022/07/20 02:31:00;;;;;;;1.85;1.65;;;;;;;18.50;42.18;94452.09;4992693;28;20025;-78
2022/07/20 02:33:26;;;;;;;3.35;2.50;;;;;;;18.52;42.31;94452.56;4992519;28;20030;-78
2022/07/20 02:35:52;;;;;;;2.50;2.30;;;;;;;18.61;42.12;94455.06;4988858;28;20040;-77
2022/07/20 02:38:17;;;;;;;2.55;2.00;;;;;;;18.48;42.10;94442.81;4993248;28;20022;-79
2022/07/20 02:40:42;;;;;;;29.00;5.45;;;;;;;18.46;42.08;94419.69;4991992;28;20117;-78
2022/07/20 02:43:08;;;;;;;3.17;1.83;;;;;;;18.69;41.91;94446.78;4990849;28;20025;-78
2022/07/20 02:45:34;;;;;;;3.17;2.40;;;;;;;18.38;41.97;94396.41;4989299;28;20036;-79
2022/07/20 02:48:05;;;;;;;3.13;2.20;;;;;;;18.64;41.96;94441.66;4990882;28;20121;-78
2022/07/20 02:50:33;;;;;;;3.83;2.00;;;;;;;18.73;42.25;94460.38;4988515;28;20033;-79
2022/07/20 02:52:59;;;;;;;3.25;1.98;;;;;;;18.47;42.48;94455.50;4992002;28;20128;-78
2022/07/20 02:55:25;;;;;;;6.53;2.38;;;;;;;18.42;42.96;94469.22;4991307;28;20022;-76
2022/07/20 02:57:50;;;;;;;2.88;1.63;;;;;;;18.38;43.03;94473.75;4991235;28;20064;-78
2022/07/20 03:00:16;;;;;;;3.45;1.92;;;;;;;18.32;42.99;94472.44;4989729;28;20030;-78
2022/07/20 03:02:41;;;;;;;3.50;2.10;;;;;;;18.22;43.05;94456.78;4990753;28;20018;-78
2022/07/20 03:05:07;;;;;;;4.72;2.40;;;;;;;18.36;43.10;94478.69;4991577;28;20675;-78
2022/07/20 03:07:33;;;;;;;3.53;2.20;;;;;;;18.39;42.98;94477.97;4991373;28;20026;-77
2022/07/20 03:09:58;;;;;;;3.72;2.08;;;;;;;18.38;43.04;94476.44;4995597;28;20030;-78
2022/07/20 03:12:24;;;;;;;3.25;1.80;;;;;;;18.45;42.93;94476.59;4991420;28;20061;-78
2022/07/20 03:14:50;;;;;;;2.75;2.10;;;;;;;18.39;42.87;94453.75;4991268;28;20081;-78
2022/07/20 03:17:16;;;;;;;2.53;1.98;;;;;;;18.38;42.65;94466.41;4990463;28;20052;-77
2022/07/20 03:19:42;;;;;;;4.15;2.47;;;;;;;18.37;42.63;94456.00;4997116;28;20026;-78
2022/07/20 03:22:07;;;;;;;3.28;2.25;;;;;;;18.49;42.86;94461.31;4988681;28;20048;-78
2022/07/20 03:24:33;;;;;;;7.05;2.45;;;;;;;18.37;43.04;94469.47;4988258;28;20026;-77
2022/07/20 03:26:58;;;;;;;2.70;2.10;;;;;;;18.35;43.03;94440.19;4996277;28;20048;-78
2022/07/20 03:29:23;;;;;;;1.80;1.55;;;;;;;18.34;43.04;94459.38;4988731;28;20158;-78
2022/07/20 03:31:49;;;;;;;4.05;3.03;;;;;;;18.45;43.13;94492.75;4990319;28;20034;-79
2022/07/20 03:34:14;;;;;;;6.45;2.38;;;;;;;18.32;43.34;94478.59;4989973;28;20076;-78
2022/07/20 03:36:39;;;;;;;3.80;2.58;;;;;;;18.41;43.45;94495.38;4990628;28;20485;-77
2022/07/20 03:39:05;;;;;;;4.03;2.00;;;;;;;18.44;43.37;94489.28;4990406;28;20021;-79
2022/07/20 03:41:30;;;;;;;6.53;2.15;;;;;;;18.39;43.57;94484.16;4990531;28;20033;-78
2022/07/20 03:43:55;;;;;;;3.88;2.10;;;;;;;18.54;43.64;94496.06;4990600;28;20061;-78
2022/07/20 03:46:21;;;;;;;2.88;1.80;;;;;;;18.46;43.47;94483.56;4990084;28;20430;-78
2022/07/20 03:48:46;;;;;;;3.08;1.70;;;;;;;18.45;43.66;94476.59;4989701;28;20052;-78
2022/07/20 03:51:12;;;;;;;2.30;1.77;;;;;;;18.36;43.82;94462.53;4990353;28;20478;-78
2022/07/20 03:53:37;;;;;;;3.42;2.35;;;;;;;18.48;43.98;94486.66;4988777;28;20114;-78
2022/07/20 03:56:03;;;;;;;2.97;2.28;;;;;;;18.57;44.08;94484.63;4991536;28;20375;-76
2022/07/20 03:58:28;;;;;;;2.83;2.10;;;;;;;18.71;43.96;94495.78;4988921;28;20940;-78
2022/07/20 04:00:54;;;;;;;3.03;2.45;;;;;;;18.77;43.79;94499.75;4991096;28;20025;-78
2022/07/20 04:03:19;;;;;;;4.20;2.30;;;;;;;18.48;44.09;94482.06;4990800;28;20040;-78
2022/07/20 04:05:44;;;;;;;3.10;2.00;;;;;;;18.66;43.17;94504.09;4990121;28;20061;-79
2022/07/20 04:08:10;;;;;;;4.05;2.25;;;;;;;18.76;43.03;94497.41;4989863;28;20477;-78
2022/07/20 04:10:37;;;;;;;9.70;2.75;;;;;;;18.87;42.86;94501.16;4990641;28;20070;-78
2022/07/20 04:13:06;;;;;;;4.25;2.30;;;;;;;18.95;42.74;94500.19;4988755;28;20105;-75
2022/07/20 04:15:32;;;;;;;5.10;2.33;;;;;;;18.95;42.61;94485.94;4987827;28;20053;-77
2022/07/20 04:17:57;;;;;;;5.25;2.85;;;;;;;18.92;42.11;94465.84;4990413;28;20463;-77
2022/07/20 04:20:23;;;;;;;4.35;3.05;;;;;;;19.18;41.91;94489.53;4989321;28;20041;-77
2022/07/20 04:22:48;;;;;;;3.80;2.13;;;;;;;18.98;41.23;94498.69;4989618;28;20033;-77
2022/07/20 04:25:14;;;;;;;5.30;3.33;;;;;;;19.00;41.38;94488.38;4989829;28;20491;-77
2022/07/20 04:27:39;;;;;;;3.42;2.40;;;;;;;19.21;41.48;94496.94;4989602;28;20022;-78
2022/07/20 04:30:06;;;;;;;5.05;2.40;;;;;;;19.29;41.10;94506.75;4990511;28;20153;-77
2022/07/20 04:32:31;;;;;;;4.88;2.70;;;;;;;19.36;40.91;94498.81;4987225;28;20024;-76
2022/07/20 04:34:56;;;;;;;3.90;2.58;;;;;;;19.52;40.75;94498.81;4990134;28;20026;-76
2022/07/20 04:37:22;;;;;;;6.38;2.85;;;;;;;19.49;40.30;94508.41;4988419;28;20490;-76
2022/07/20 04:39:48;;;;;;;3.40;2.50;;;;;;;18.85;41.29;94463.78;4988643;28;20022;-76
2022/07/20 04:42:13;;;;;;;5.32;2.50;;;;;;;18.95;41.02;94500.19;4988005;28;20111;-76
2022/07/20 04:44:39;;;;;;;4.30;2.33;;;;;;;19.24;40.52;94491.63;4990448;28;20486;-77
2022/07/20 04:47:04;;;;;;;3.25;2.63;;;;;;;19.34;40.32;94493.00;4988530;28;20026;-76
2022/07/20 04:49:29;;;;;;;5.15;2.60;;;;;;;19.30;40.76;94489.44;4989574;28;20046;-76
2022/07/20 04:51:55;;;;;;;6.22;2.63;;;;;;;19.05;41.74;94515.06;4990119;28;20105;-76
2022/07/20 04:54:21;;;;;;;4.97;2.38;;;;;;;19.16;41.08;94498.00;4993141;28;20095;-76
2022/07/20 04:56:47;;;;;;;2.95;2.28;;;;;;;19.30;40.56;94502.94;4989106;28;20593;-77
2022/07/20 04:59:13;;;;;;;6.15;3.10;;;;;;;19.06;40.85;94484.28;4989518;28;20088;-76
2022/07/20 05:01:38;;;;;;;4.70;2.78;;;;;;;18.80;41.13;94519.84;4990165;28;20021;-76
2022/07/20 05:04:04;;;;;;;4.75;2.88;;;;;;;18.76;41.47;94514.38;4991933;28;20585;-77
2022/07/20 05:06:29;;;;;;;5.65;2.85;;;;;;;19.01;41.64;94530.38;4996034;28;20040;-78
2022/07/20 05:08:55;;;;;;;2.85;2.42;;;;;;;18.97;41.63;94526.81;4993990;28;20042;-78
2022/07/20 05:11:20;;;;;;;5.25;2.78;;;;;;;19.00;40.86;94507.22;4993569;28;20030;-78
2022/07/20 05:13:45;;;;;;;3.78;2.83;;;;;;;18.81;40.56;94497.94;4991815;28;20037;-78
2022/07/20 05:16:11;;;;;;;2.90;2.35;;;;;;;19.28;40.96;94510.59;4999476;28;20021;-79
2022/07/20 05:18:37;;;;;;;4.78;2.45;;;;;;;19.40;40.67;94507.78;4992289;28;20026;-76
2022/07/20 05:21:03;;;;;;;4.10;2.10;;;;;;;19.63;40.21;94507.91;4991451;28;20018;-78
2022/07/20 05:23:29;;;;;;;3.83;2.90;;;;;;;19.82;39.79;94528.72;4993148;28;20026;-78
2022/07/20 05:25:55;;;;;;;3.15;2.40;;;;;;;19.72;40.08;94508.50;4992207;28;20485;-78
2022/07/20 05:28:21;;;;;;;7.90;3.17;;;;;;;20.07;39.45;94548.94;4993847;28;20445;-79
2022/07/20 05:30:49;;;;;;;8.77;3.40;;;;;;;20.14;38.83;94519.38;4994993;28;20030;-78
2022/07/20 05:33:15;;;;;;;3.58;2.70;;;;;;;19.57;40.56;94518.19;5005298;28;20092;-77
2022/07/20 05:35:40;;;;;;;3.17;2.28;;;;;;;20.04;39.74;94509.16;4991538;28;20508;-78
2022/07/20 05:38:07;;;;;;;4.88;3.58;;;;;;;20.20;40.05;94509.88;4992532;28;20030;-78
2022/07/20 05:40:32;;;;;;;5.25;3.08;;;;;;;20.42;39.65;94533.44;4992255;28;20050;-78
2022/07/20 05:42:58;;;;;;;3.25;2.50;;;;;;;20.19;39.36;94532.59;4993734;28;20557;-78
2022/07/20 05:45:23;;;;;;;4.65;2.75;;;;;;;19.86;40.42;94537.69;4990977;28;20038;-78
2022/07/20 05:47:49;;;;;;;3.55;2.55;;;;;;;20.13;39.79;94517.81;4992178;28;20034;-79
2022/07/20 05:50:14;;;;;;;5.47;3.00;;;;;;;20.05;39.45;94524.97;4997758;28;20033;-78
2022/07/20 05:52:39;;;;;;;3.90;2.92;;;;;;;20.35;39.21;94525.19;4992646;28;20450;-78
2022/07/20 05:55:05;;;;;;;4.38;3.58;;;;;;;20.51;38.77;94530.50;4990642;28;20034;-79
2022/07/20 05:57:31;;;;;;;2.88;2.33;;;;;;;20.25;38.89;94503.38;4993262;28;20033;-78
2022/07/20 05:59:56;;;;;;;4.15;2.80;;;;;;;19.93;39.51;94532.44;4992087;28;20027;-77
2022/07/20 06:02:22;;;;;;;6.68;3.00;;;;;;;20.12;39.42;94517.03;4993405;28;20030;-78
2022/07/20 06:04:47;;;;;;;6.25;3.28;;;;;;;20.46;39.46;94528.88;4992335;28;20038;-78
2022/07/20 06:07:12;;;;;;;9.32;3.13;;;;;;;20.43;38.89;94508.00;4993629;28;20152;-78
2022/07/20 06:09:38;;;;;;;3.17;2.10;;;;;;;20.90;39.04;94536.63;4991982;28;20050;-78
2022/07/20 06:12:03;;;;;;;7.10;3.35;;;;;;;21.05;38.32;94530.31;4992250;28;20572;-77
2022/07/20 06:14:29;;;;;;;3.22;2.75;;;;;;;20.61;37.69;94508.31;4987969;28;20132;-78
2022/07/20 06:16:54;;;;;;;6.05;2.78;;;;;;;21.02;38.55;94544.56;4988132;28;20105;-76
2022/07/20 06:19:20;;;;;;;3.17;2.38;;;;;;;20.97;38.79;94532.13;4991522;28;20022;-76
2022/07/20 06:21:45;;;;;;;2.72;2.20;;;;;;;20.46;38.49;94538.91;4991795;28;20109;-77
2022/07/20 06:24:10;;;;;;;4.03;3.50;;;;;;;20.64;39.20;94550.03;4991251;28;20117;-77
2022/07/20 06:26:36;;;;;;;4.90;2.58;;;;;;;20.83;39.21;94550.00;4992665;28;20032;-78
2022/07/20 06:29:02;;;;;;;6.68;2.47;;;;;;;20.89;38.34;94529.66;4990170;28;20022;-76
2022/07/20 06:31:28;;;;;;;3.00;2.10;;;;;;;21.05;38.53;94538.44;4991253;28;20033;-77
2022/07/20 06:33:53;;;;;;;2.97;2.55;;;;;;;21.05;39.12;94553.88;4992137;28;20059;-76
2022/07/20 06:36:19;;;;;;;3.42;2.80;;;;;;;21.15;38.85;94542.44;4988517;28;20038;-78
2022/07/20 06:38:45;;;;;;;4.32;2.42;;;;;;;21.25;38.80;94521.00;4989984;28;20131;-78
2022/07/20 06:41:11;;;;;;;4.38;2.47;;;;;;;21.55;38.47;94523.00;4989758;28;20044;-78
2022/07/20 06:43:36;;;;;;;4.85;2.85;;;;;;;21.88;37.77;94537.38;4990672;28;20033;-78
2022/07/20 06:46:01;;;;;;;10.80;2.88;;;;;;;21.84;37.39;94525.72;4989234;28;20068;-77
2022/07/20 06:48:27;;;;;;;3.58;2.30;;;;;;;22.02;37.58;94508.91;4990172;28;20108;-77
2022/07/20 06:50:52;;;;;;;2.92;2.63;;;;;;;22.34;37.63;94512.03;4991087;28;20403;-78
2022/07/20 06:53:18;;;;;;;6.40;2.33;;;;;;;22.16;37.28;94515.25;4992053;28;20173;-78
2022/07/20 06:55:43;;;;;;;7.38;2.92;;;;;;;21.86;37.30;94506.38;4993369;28;20026;-77
2022/07/20 06:58:09;;;;;;;3.83;2.38;;;;;;;22.32;38.02;94533.28;4989240;28;20029;-79
2022/07/20 07:00:34;;;;;;;3.90;2.67;;;;;;;22.41;37.87;94525.63;4992106;28;20077;-79
2022/07/20 07:03:00;;;;;;;2.47;2.22;;;;;;;22.66;37.62;94534.81;4995342;28;20045;-78
2022/07/20 07:05:25;;;;;;;3.15;2.13;;;;;;;22.56;36.97;94511.09;5001624;28;20061;-78
2022/07/20 07:07:51;;;;;;;7.03;3.53;;;;;;;22.49;37.57;94511.78;4991707;28;20041;-79
2022/07/20 07:10:16;;;;;;;5.88;2.55;;;;;;;22.71;37.36;94512.78;4989367;28;20034;-77
2022/07/20 07:12:41;;;;;;;4.57;2.40;;;;;;;22.73;37.24;94521.34;4989702;28;20034;-77
2022/07/20 07:15:07;;;;;;;4.40;2.50;;;;;;;22.80;37.18;94494.28;4988502;28;20030;-77
2022/07/20 07:17:33;;;;;;;3.45;2.58;;;;;;;22.67;36.51;94520.09;4989392;28;20112;-77
2022/07/20 07:19:59;;;;;;;3.60;2.60;;;;;;;22.79;36.84;94517.09;4988339;28;20036;-77
2022/07/20 07:22:27;;;;;;;3.92;2.13;;;;;;;22.63;38.04;94511.16;4989517;28;20042;-77
2022/07/20 07:24:53;;;;;;;3.13;2.20;;;;;;;22.37;38.03;94503.13;4988511;28;20303;-77
2022/07/20 07:27:19;;;;;;;5.18;2.53;;;;;;;22.60;38.55;94528.16;4987716;28;20041;-77
2022/07/20 07:29:45;;;;;;;14.82;2.95;;;;;;;22.83;38.07;94517.91;4988501;28;20039;-77
2022/07/20 07:32:10;;;;;;;3.55;2.40;;;;;;;23.03;37.11;94508.44;4989253;28;20037;-77
2022/07/20 07:34:36;;;;;;;9.60;2.60;;;;;;;23.07;37.31;94498.38;4987255;28;20037;-77
2022/07/20 07:37:01;;;;;;;4.15;2.45;;;;;;;23.05;36.78;94486.38;4988912;28;20269;-77
2022/07/20 07:39:26;;;;;;;4.97;2.85;;;;;;;23.30;36.39;94510.97;4989580;28;20022;-77
2022/07/20 07:41:52;;;;;;;4.97;2.30;;;;;;;23.23;36.50;94517.13;4990941;28;20029;-77
2022/07/20 07:44:17;;;;;;;4.35;2.95;;;;;;;23.56;36.32;94513.53;4990360;28;20062;-77
2022/07/20 07:46:43;;;;;;;3.95;2.35;;;;;;;23.49;34.87;94497.94;4990334;28;20034;-77
2022/07/20 07:49:08;;;;;;;4.72;2.13;;;;;;;23.34;36.04;94471.06;4989845;28;20032;-77
2022/07/20 07:51:34;;;;;;;3.72;2.63;;;;;;;23.07;35.84;94503.06;4991395;28;20045;-77
2022/07/20 07:53:59;;;;;;;3.33;2.38;;;;;;;23.00;36.69;94492.13;4989843;28;20022;-77
2022/07/20 07:56:24;;;;;;;3.80;2.20;;;;;;;23.29;36.07;94482.28;4991706;28;20037;-77
2022/07/20 07:58:50;;;;;;;2.95;2.20;;;;;;;23.47;36.64;94488.59;4988345;28;20022;-77
2022/07/20 08:01:15;;;;;;;4.82;2.45;;;;;;;23.73;35.63;94501.97;4989602;28;20406;-77
2022/07/20 08:03:41;;;;;;;3.65;2.20;;;;;;;23.71;35.89;94487.22;4990146;28;20029;-77
2022/07/20 08:06:07;;;;;;;3.28;2.08;;;;;;;23.61;35.29;94498.81;4990892;28;20505;-78
2022/07/20 08:08:32;;;;;;;4.28;2.00;;;;;;;23.71;35.38;94501.56;4988153;28;20080;-78
2022/07/20 08:10:58;;;;;;;3.17;1.83;;;;;;;23.82;33.54;94480.66;4988730;28;20405;-77
2022/07/20 08:13:24;;;;;;;4.60;1.98;;;;;;;23.50;33.18;94498.72;4986614;28;20427;-77
2022/07/20 08:15:50;;;;;;;2.38;1.92;;;;;;;23.75;33.43;94493.44;4988958;28;20021;-78
2022/07/20 08:18:16;;;;;;;2.95;2.42;;;;;;;23.50;33.46;94499.53;4988288;28;20092;-77
2022/07/20 08:20:42;;;;;;;2.42;1.52;;;;;;;23.45;32.24;94469.19;4989837;28;20081;-77
2022/07/20 08:23:08;;;;;;;6.22;2.13;;;;;;;23.56;31.67;94473.53;4988436;28;20037;-77
2022/07/20 08:25:33;;;;;;;2.08;1.20;;;;;;;23.76;32.77;94489.56;4990030;28;20599;-77
2022/07/20 08:28:14;;;;;;;2.38;1.70;;;;;;;23.81;33.59;94486.47;4987491;28;20033;-77
2022/07/20 08:30:41;;;;;;;2.38;1.92;;;;;;;23.86;32.54;94495.03;4989947;28;20083;-76
2022/07/20 08:33:06;;;;;;;5.22;2.45;;;;;;;23.72;32.29;94486.81;5002305;28;20116;-77
2022/07/20 08:35:32;;;;;;;3.55;2.20;;;;;;;23.72;33.69;94467.81;4990887;28;20044;-77
2022/07/20 08:37:57;;;;;;;2.65;1.60;;;;;;;23.59;33.35;94488.31;4994678;28;20044;-77
2022/07/20 08:40:24;;;;;;;4.75;1.33;;;;;;;23.78;31.30;94468.22;4988668;28;20794;-76
2022/07/20 08:42:49;;;;;;;2.92;1.20;;;;;;;23.90;30.52;94467.91;4994665;28;20026;-77
2022/07/20 08:45:15;;;;;;;2.38;2.10;;;;;;;24.00;31.15;94483.47;4992663;28;20022;-76
2022/07/20 08:47:41;;;;;;;4.40;1.60;;;;;;;23.92;30.60;94485.38;4992748;28;20521;-77
2022/07/20 08:50:07;;;;;;;2.03;1.15;;;;;;;23.81;31.34;94460.09;4994335;28;20108;-78
2022/07/20 08:52:32;;;;;;;1.95;1.40;;;;;;;24.01;29.57;94471.44;4995381;28;20068;-78
2022/07/20 08:54:57;;;;;;;2.05;1.60;;;;;;;24.06;30.99;94483.88;4995297;28;20071;-78
2022/07/20 08:57:23;;;;;;;4.25;1.70;;;;;;;24.14;30.83;94463.75;4993659;28;20034;-78
2022/07/20 08:59:48;;;;;;;4.07;1.40;;;;;;;24.29;31.20;94473.50;4993879;28;21482;-77
2022/07/20 09:02:15;;;;;;;2.55;1.23;;;;;;;24.10;32.61;94452.81;4989823;28;20494;-79
2022/07/20 09:04:58;;;;;;;1.70;1.50;;;;;;;24.30;30.41;94464.94;4994244;28;20026;-78
2022/07/20 09:07:44;;;;;;;1.83;1.40;;;;;;;24.49;29.56;94482.09;5004723;28;20053;-77
2022/07/20 09:10:13;;;;;;;2.38;1.50;;;;;;;24.46;28.82;94471.97;4972570;28;20042;-77
2022/07/20 09:12:57;;;;;;;2.38;1.40;;;;;;;24.36;30.03;94451.75;4972721;28;20565;-77
2022/07/20 09:15:39;;;;;;;3.93;1.80;;;;;;;24.55;28.99;94475.88;4973788;28;20462;-77
2022/07/20 09:18:07;;;;;;;1.60;1.20;;;;;;;24.31;31.12;94473.88;4972767;28;20624;-77
2022/07/20 09:20:34;;;;;;;2.20;1.38;;;;;;;24.38;29.30;94471.19;4972672;28;20033;-78
2022/07/20 09:23:06;;;;;;;1.58;1.10;;;;;;;24.44;29.45;94480.53;4972953;28;20027;-77
2022/07/20 09:25:32;;;;;;;3.30;1.30;;;;;;;24.47;29.21;94468.88;4970728;28;20446;-76
2022/07/20 09:27:57;;;;;;;4.13;1.58;;;;;;;24.37;28.78;94445.16;4963176;28;20278;-76
2022/07/20 09:30:23;;;;;;;1.23;0.90;;;;;;;24.51;28.70;94466.16;4972236;28;20470;-77
2022/07/20 09:33:08;;;;;;;5.28;1.20;;;;;;;24.26;29.15;94423.41;4973053;28;20042;-77
2022/07/20 09:35:35;;;;;;;4.63;1.10;;;;;;;24.52;29.24;94460.34;4971807;28;20532;-77
2022/07/20 09:38:06;;;;;;;2.95;1.48;;;;;;;24.42;30.44;94445.56;4978163;28;20474;-77
2022/07/20 09:40:41;;;;;;;1.40;1.15;;;;;;;24.47;29.02;94441.69;4978639;28;20341;-77
2022/07/20 09:43:06;;;;;;;1.88;1.33;;;;;;;24.50;29.03;94427.31;4973317;28;20086;-76
2022/07/20 09:45:32;;;;;;;1.17;1.00;;;;;;;24.57;30.62;94432.78;4966854;28;20022;-77
2022/07/20 09:48:01;;;;;;;1.13;0.93;;;;;;;24.75;30.50;94452.63;4967966;28;20027;-77
2022/07/20 09:50:29;;;;;;;2.20;1.00;;;;;;;24.85;30.68;94460.00;4966571;28;20030;-77
2022/07/20 09:52:56;;;;;;;1.80;0.90;;;;;;;24.81;29.75;94440.19;4964028;28;20042;-78
2022/07/20 09:55:21;;;;;;;1.58;1.15;;;;;;;25.02;28.69;94450.31;4965726;28;20035;-77
2022/07/20 09:57:51;;;;;;;4.50;1.08;;;;;;;25.09;28.02;94444.06;4966198;28;20042;-76
2022/07/20 10:00:17;;;;;;;1.42;1.00;;;;;;;24.96;28.69;94446.41;4966132;28;20042;-76
2022/07/20 10:02:50;;;;;;;0.93;0.90;;;;;;;24.99;28.75;94439.41;4967807;28;20046;-76
2022/07/20 10:05:19;;;;;;;4.43;1.52;;;;;;;25.15;28.78;94442.50;4970561;28;20149;-76
2022/07/20 10:07:45;;;;;;;2.92;1.25;;;;;;;24.97;29.20;94441.75;4971937;28;20039;-77
2022/07/20 10:10:11;;;;;;;1.23;0.95;;;;;;;25.05;28.58;94416.06;4993604;28;20056;-77
2022/07/20 10:12:37;;;;;;;1.30;1.08;;;;;;;25.21;30.02;94430.06;4989348;28;20042;-77
2022/07/20 10:15:16;;;;;;;2.10;1.05;;;;;;;25.18;28.20;94420.72;4985153;28;20490;-77
2022/07/20 10:17:43;;;;;;;1.52;1.08;;;;;;;24.86;27.84;94425.44;4983778;28;20038;-77
2022/07/20 10:20:34;;;;;;;1.55;1.23;;;;;;;25.07;28.11;94425.44;4986637;28;20148;-78
2022/07/20 10:23:14;;;;;;;1.63;1.10;;;;;;;25.22;29.16;94423.47;4991351;28;20030;-77
2022/07/20 10:25:41;;;;;;;1.17;1.08;;;;;;;25.24;29.00;94412.94;5001002;28;20398;-77
2022/07/20 10:28:27;;;;;;;2.85;1.15;;;;;;;25.28;28.51;94413.69;5005736;28;20026;-77
2022/07/20 10:30:58;;;;;;;4.43;1.13;;;;;;;25.31;29.48;94391.19;4988621;28;20026;-77
2022/07/20 10:33:25;;;;;;;1.05;1.00;;;;;;;25.35;28.46;94413.72;4968911;28;20030;-77
2022/07/20 10:35:52;;;;;;;1.10;1.00;;;;;;;25.47;27.66;94416.00;4985936;28;20556;-77
2022/07/20 10:38:19;;;;;;;1.25;1.15;;;;;;;25.34;28.46;94379.50;4982702;28;20029;-77
2022/07/20 10:44:20;;;;;;;3.45;1.13;;;;;;;25.65;27.92;94397.69;4989924;28;20044;-77
2022/07/20 10:46:47;;;;;;;1.98;1.30;;;;;;;25.31;27.80;94385.75;4985810;28;20390;-77
2022/07/20 10:49:13;;;;;;;5.55;1.33;;;;;;;25.52;28.14;94391.09;4981044;28;20022;-77
2022/07/20 10:51:39;;;;;;;1.40;1.00;;;;;;;25.74;29.46;94388.31;4989081;28;20565;-77
2022/07/20 10:54:36;;;;;;;2.17;1.10;;;;;;;25.89;28.15;94378.94;4989745;28;20029;-77
2022/07/20 10:57:03;;;;;;;1.40;1.20;;;;;;;25.98;28.44;94385.50;4990564;28;20029;-77
2022/07/20 10:59:28;;;;;;;1.58;1.10;;;;;;;26.01;26.90;94378.47;4990055;28;20501;-77
2022/07/20 11:01:54;;;;;;;3.08;1.15;;;;;;;25.88;28.23;94369.16;4982037;28;20041;-77
2022/07/20 11:04:21;;;;;;;1.45;1.13;;;;;;;25.51;31.60;94373.22;4981803;28;20119;-77
2022/07/20 11:06:48;;;;;;;1.42;1.17;;;;;;;25.65;28.65;94362.28;4983112;28;20134;-77
2022/07/20 11:09:13;;;;;;;1.42;1.02;;;;;;;25.47;28.53;94361.56;4979931;28;20050;-78
2022/07/20 11:11:39;;;;;;;1.42;1.10;;;;;;;25.32;28.89;94354.63;4980543;28;20083;-77
2022/07/20 11:14:06;;;;;;;2.80;1.10;;;;;;;25.35;28.78;94353.84;4979932;28;20042;-76
2022/07/20 11:16:34;;;;;;;1.33;1.20;;;;;;;25.36;28.19;94366.28;4978441;28;20030;-77
2022/07/20 11:19:01;;;;;;;1.70;1.60;;;;;;;25.69;27.64;94356.81;4981115;28;20805;-77
2022/07/20 11:21:40;;;;;;;3.33;1.90;;;;;;;25.83;27.20;94366.84;4982053;28;20045;-77
2022/07/20 11:24:24;;;;;;;1.30;1.20;;;;;;;25.90;30.37;94361.41;4986268;28;20080;-77
2022/07/20 11:26:50;;;;;;;3.33;1.30;;;;;;;25.77;28.89;94328.34;4988431;28;20029;-77
2022/07/20 11:29:16;;;;;;;3.55;1.60;;;;;;;25.99;27.63;94337.22;4985261;28;20033;-77
2022/07/20 11:31:42;;;;;;;3.63;2.00;;;;;;;26.24;28.10;94343.28;4998955;28;20041;-78
2022/07/20 11:34:08;;;;;;;1.88;1.45;;;;;;;26.25;27.06;94336.63;4984756;28;20489;-77
2022/07/20 11:36:36;;;;;;;3.08;1.58;;;;;;;26.30;28.58;94347.13;4986560;28;20026;-77
2022/07/20 11:39:06;;;;;;;3.38;1.30;;;;;;;26.32;27.68;94327.66;4986160;28;20018;-77